sensor_id;sensor_type;location;lat;lon;timestamp;temperature;humidity
7325;DHT22;3703;48.016;7.802;2023-05-10T00:00:31;14.20;99.90
7325;DHT22;3703;48.016;7.802;2023-05-10T00:02:59;14.30;99.90
7325;DHT22;3703;48.016;7.802;2023-05-10T00:05:27;14.30;99.90
7325;DHT22;3703;48.016;7.802;2023-05-10T00:07:54;14.30;99.90
7325;DHT22;3703;48.016;7.802;2023-05-10T00:10:21;14.30;99.90
7325;DHT22;3703;48.016;7.802;2023-05-10T00:12:48;14.30;99.90
7325;DHT22;3703;48.016;7.802;2023-05-10T00:15:15;14.40;99.90
7325;DHT22;3703;48.016;7.802;2023-05-10T00:17:42;14.40;99.90
7325;DHT22;3703;48.016;7.802;2023-05-10T00:20:12;14.40;99.90
7325;DHT22;3703;48.016;7.802;2023-05-10T00:22:39;14.20;99.90
7325;DHT22;3703;48.016;7.802;2023-05-10T00:25:08;14.20;99.90
7325;DHT22;3703;48.016;7.802;2023-05-10T00:27:35;14.20;99.90
7325;DHT22;3703;48.016;7.802;2023-05-10T00:30:03;14.30;99.90
7325;DHT22;3703;48.016;7.802;2023-05-10T00:32:31;14.30;99.90
7325;DHT22;3703;48.016;7.802;2023-05-10T00:34:59;14.30;99.50
7325;DHT22;3703;48.016;7.802;2023-05-10T00:37:27;14.20;99.90
7325;DHT22;3703;48.016;7.802;2023-05-10T00:39:54;14.20;99.90
7325;DHT22;3703;48.016;7.802;2023-05-10T00:42:21;14.20;99.90
7325;DHT22;3703;48.016;7.802;2023-05-10T00:44:49;14.20;99.90
7325;DHT22;3703;48.016;7.802;2023-05-10T00:47:16;14.20;98.80
7325;DHT22;3703;48.016;7.802;2023-05-10T00:49:44;14.20;98.30
7325;DHT22;3703;48.016;7.802;2023-05-10T00:52:12;14.10;99.90
7325;DHT22;3703;48.016;7.802;2023-05-10T00:54:41;14.10;99.90
7325;DHT22;3703;48.016;7.802;2023-05-10T00:57:08;14.10;99.90
7325;DHT22;3703;48.016;7.802;2023-05-10T00:59:36;14.00;99.90
7325;DHT22;3703;48.016;7.802;2023-05-10T01:02:03;14.00;99.90
7325;DHT22;3703;48.016;7.802;2023-05-10T01:04:30;14.00;99.90
7325;DHT22;3703;48.016;7.802;2023-05-10T01:06:57;14.10;99.90
7325;DHT22;3703;48.016;7.802;2023-05-10T01:09:25;14.00;99.90
7325;DHT22;3703;48.016;7.802;2023-05-10T01:11:54;14.00;99.90
7325;DHT22;3703;48.016;7.802;2023-05-10T01:14:22;14.00;99.90
7325;DHT22;3703;48.016;7.802;2023-05-10T01:16:49;14.00;99.90
7325;DHT22;3703;48.016;7.802;2023-05-10T01:19:19;13.90;99.90
7325;DHT22;3703;48.016;7.802;2023-05-10T01:21:56;13.90;99.90
7325;DHT22;3703;48.016;7.802;2023-05-10T01:32:15;13.90;99.90
7325;DHT22;3703;48.016;7.802;2023-05-10T01:34:51;13.90;99.90
7325;DHT22;3703;48.016;7.802;2023-05-10T01:37:28;13.90;99.90
7325;DHT22;3703;48.016;7.802;2023-05-10T01:40:05;13.80;99.90
7325;DHT22;3703;48.016;7.802;2023-05-10T01:42:43;13.70;99.90
7325;DHT22;3703;48.016;7.802;2023-05-10T01:45:18;13.80;99.90
7325;DHT22;3703;48.016;7.802;2023-05-10T01:47:54;13.80;99.90
7325;DHT22;3703;48.016;7.802;2023-05-10T01:50:29;13.50;99.90
7325;DHT22;3703;48.016;7.802;2023-05-10T01:52:59;14.20;99.90
7325;DHT22;3703;48.016;7.802;2023-05-10T01:55:29;13.80;99.90
7325;DHT22;3703;48.016;7.802;2023-05-10T01:58:02;13.80;99.90
7325;DHT22;3703;48.016;7.802;2023-05-10T02:00:31;13.90;99.90
7325;DHT22;3703;48.016;7.802;2023-05-10T02:03:05;13.90;99.90
7325;DHT22;3703;48.016;7.802;2023-05-10T02:05:34;13.90;99.90
7325;DHT22;3703;48.016;7.802;2023-05-10T02:08:05;13.90;99.90
7325;DHT22;3703;48.016;7.802;2023-05-10T02:10:33;13.90;99.90
7325;DHT22;3703;48.016;7.802;2023-05-10T02:13:02;14.00;99.90
7325;DHT22;3703;48.016;7.802;2023-05-10T02:15:30;13.90;99.90
7325;DHT22;3703;48.016;7.802;2023-05-10T02:17:59;13.80;99.90
7325;DHT22;3703;48.016;7.802;2023-05-10T02:20:29;14.20;99.90
7325;DHT22;3703;48.016;7.802;2023-05-10T02:22:58;13.90;99.90
7325;DHT22;3703;48.016;7.802;2023-05-10T02:25:27;13.90;99.90
7325;DHT22;3703;48.016;7.802;2023-05-10T02:27:56;13.90;99.90
7325;DHT22;3703;48.016;7.802;2023-05-10T02:30:24;13.70;99.90
7325;DHT22;3703;48.016;7.802;2023-05-10T02:32:53;13.90;99.90
7325;DHT22;3703;48.016;7.802;2023-05-10T02:35:22;13.90;99.90
7325;DHT22;3703;48.016;7.802;2023-05-10T02:37:50;13.90;99.90
7325;DHT22;3703;48.016;7.802;2023-05-10T02:40:18;14.00;99.90
7325;DHT22;3703;48.016;7.802;2023-05-10T02:42:47;14.00;99.90
7325;DHT22;3703;48.016;7.802;2023-05-10T02:45:21;14.00;99.90
7325;DHT22;3703;48.016;7.802;2023-05-10T02:47:52;14.10;99.20
7325;DHT22;3703;48.016;7.802;2023-05-10T02:50:21;13.90;99.90
7325;DHT22;3703;48.016;7.802;2023-05-10T02:52:51;14.00;98.40
7325;DHT22;3703;48.016;7.802;2023-05-10T02:55:21;14.00;98.70
7325;DHT22;3703;48.016;7.802;2023-05-10T02:57:53;14.00;99.40
7325;DHT22;3703;48.016;7.802;2023-05-10T03:00:24;14.00;99.90
7325;DHT22;3703;48.016;7.802;2023-05-10T03:02:52;13.90;99.90
7325;DHT22;3703;48.016;7.802;2023-05-10T03:05:20;13.90;99.90
7325;DHT22;3703;48.016;7.802;2023-05-10T03:07:48;13.90;99.90
7325;DHT22;3703;48.016;7.802;2023-05-10T03:10:15;13.80;99.90
7325;DHT22;3703;48.016;7.802;2023-05-10T03:12:52;13.80;99.90
7325;DHT22;3703;48.016;7.802;2023-05-10T03:15:37;13.90;99.60
7325;DHT22;3703;48.016;7.802;2023-05-10T03:18:12;13.80;99.50
7325;DHT22;3703;48.016;7.802;2023-05-10T03:20:47;13.80;99.90
7325;DHT22;3703;48.016;7.802;2023-05-10T03:23:22;13.80;99.90
7325;DHT22;3703;48.016;7.802;2023-05-10T03:25:52;13.70;99.90
7325;DHT22;3703;48.016;7.802;2023-05-10T03:28:21;13.70;99.90
7325;DHT22;3703;48.016;7.802;2023-05-10T03:30:49;13.70;99.90
7325;DHT22;3703;48.016;7.802;2023-05-10T03:33:17;13.70;99.90
7325;DHT22;3703;48.016;7.802;2023-05-10T03:35:46;13.70;99.90
7325;DHT22;3703;48.016;7.802;2023-05-10T03:38:13;13.70;99.90
7325;DHT22;3703;48.016;7.802;2023-05-10T03:40:40;12.80;99.90
7325;DHT22;3703;48.016;7.802;2023-05-10T03:43:07;13.70;99.90
7325;DHT22;3703;48.016;7.802;2023-05-10T03:45:35;13.70;99.90
7325;DHT22;3703;48.016;7.802;2023-05-10T03:48:02;13.80;99.90
7325;DHT22;3703;48.016;7.802;2023-05-10T03:50:29;13.90;99.90
7325;DHT22;3703;48.016;7.802;2023-05-10T03:52:58;13.80;99.90
7325;DHT22;3703;48.016;7.802;2023-05-10T03:55:25;13.80;99.90
7325;DHT22;3703;48.016;7.802;2023-05-10T03:57:52;13.80;99.90
7325;DHT22;3703;48.016;7.802;2023-05-10T04:00:20;14.00;99.90
7325;DHT22;3703;48.016;7.802;2023-05-10T04:02:47;13.80;99.90
7325;DHT22;3703;48.016;7.802;2023-05-10T04:05:14;13.90;99.20
7325;DHT22;3703;48.016;7.802;2023-05-10T04:07:42;14.00;96.10
7325;DHT22;3703;48.016;7.802;2023-05-10T04:10:11;13.90;95.70
7325;DHT22;3703;48.016;7.802;2023-05-10T04:12:38;13.90;96.00
7325;DHT22;3703;48.016;7.802;2023-05-10T04:15:06;13.90;96.20
7325;DHT22;3703;48.016;7.802;2023-05-10T04:17:34;13.90;94.80
7325;DHT22;3703;48.016;7.802;2023-05-10T04:20:01;14.00;93.70
7325;DHT22;3703;48.016;7.802;2023-05-10T04:22:29;14.00;93.10
7325;DHT22;3703;48.016;7.802;2023-05-10T04:24:56;14.00;90.40
7325;DHT22;3703;48.016;7.802;2023-05-10T04:27:25;13.90;92.40
7325;DHT22;3703;48.016;7.802;2023-05-10T04:29:52;14.00;91.90
7325;DHT22;3703;48.016;7.802;2023-05-10T04:32:19;13.80;91.60
7325;DHT22;3703;48.016;7.802;2023-05-10T04:34:46;13.70;94.90
7325;DHT22;3703;48.016;7.802;2023-05-10T04:37:14;13.70;95.10
7325;DHT22;3703;48.016;7.802;2023-05-10T04:39:41;13.70;94.20
7325;DHT22;3703;48.016;7.802;2023-05-10T04:42:09;13.70;94.60
7325;DHT22;3703;48.016;7.802;2023-05-10T04:44:38;13.70;94.00
7325;DHT22;3703;48.016;7.802;2023-05-10T04:47:05;13.70;94.80
7325;DHT22;3703;48.016;7.802;2023-05-10T04:49:32;13.70;95.30
7325;DHT22;3703;48.016;7.802;2023-05-10T04:51:59;13.70;95.50
7325;DHT22;3703;48.016;7.802;2023-05-10T04:54:26;13.60;93.70
7325;DHT22;3703;48.016;7.802;2023-05-10T04:56:53;13.50;95.70
7325;DHT22;3703;48.016;7.802;2023-05-10T04:59:21;13.60;97.50
7325;DHT22;3703;48.016;7.802;2023-05-10T05:01:49;13.60;97.10
7325;DHT22;3703;48.016;7.802;2023-05-10T05:04:16;13.60;95.60
7325;DHT22;3703;48.016;7.802;2023-05-10T05:06:43;13.60;95.10
7325;DHT22;3703;48.016;7.802;2023-05-10T05:09:10;13.60;96.30
7325;DHT22;3703;48.016;7.802;2023-05-10T05:11:38;13.50;98.00
7325;DHT22;3703;48.016;7.802;2023-05-10T05:14:05;13.50;98.70
7325;DHT22;3703;48.016;7.802;2023-05-10T05:16:33;13.50;98.90
7325;DHT22;3703;48.016;7.802;2023-05-10T05:19:01;13.60;97.90
7325;DHT22;3703;48.016;7.802;2023-05-10T05:21:28;13.60;98.00
7325;DHT22;3703;48.016;7.802;2023-05-10T05:23:57;13.60;97.00
7325;DHT22;3703;48.016;7.802;2023-05-10T05:26:24;13.70;95.80
7325;DHT22;3703;48.016;7.802;2023-05-10T05:28:53;13.60;95.40
7325;DHT22;3703;48.016;7.802;2023-05-10T05:31:20;13.60;97.10
7325;DHT22;3703;48.016;7.802;2023-05-10T05:33:47;13.60;96.20
7325;DHT22;3703;48.016;7.802;2023-05-10T05:36:16;13.60;96.40
7325;DHT22;3703;48.016;7.802;2023-05-10T05:38:43;13.60;96.50
7325;DHT22;3703;48.016;7.802;2023-05-10T05:41:11;13.60;94.70
7325;DHT22;3703;48.016;7.802;2023-05-10T05:43:38;13.60;94.80
7325;DHT22;3703;48.016;7.802;2023-05-10T05:46:05;13.50;98.10
7325;DHT22;3703;48.016;7.802;2023-05-10T05:48:33;13.50;98.70
7325;DHT22;3703;48.016;7.802;2023-05-10T05:51:00;13.40;99.90
7325;DHT22;3703;48.016;7.802;2023-05-10T05:53:28;13.50;99.80
7325;DHT22;3703;48.016;7.802;2023-05-10T05:55:57;13.40;99.90
7325;DHT22;3703;48.016;7.802;2023-05-10T05:58:25;13.40;99.90
7325;DHT22;3703;48.016;7.802;2023-05-10T06:00:52;13.40;99.90
7325;DHT22;3703;48.016;7.802;2023-05-10T06:03:20;13.40;99.90
7325;DHT22;3703;48.016;7.802;2023-05-10T06:05:47;13.30;99.90
7325;DHT22;3703;48.016;7.802;2023-05-10T06:08:14;13.20;99.90
7325;DHT22;3703;48.016;7.802;2023-05-10T06:10:43;14.20;99.90
7325;DHT22;3703;48.016;7.802;2023-05-10T06:13:10;13.10;99.90
7325;DHT22;3703;48.016;7.802;2023-05-10T06:15:38;13.20;99.90
7325;DHT22;3703;48.016;7.802;2023-05-10T06:18:05;13.30;99.90
7325;DHT22;3703;48.016;7.802;2023-05-10T06:20:32;13.80;99.90
7325;DHT22;3703;48.016;7.802;2023-05-10T06:23:00;13.50;99.90
7325;DHT22;3703;48.016;7.802;2023-05-10T06:25:27;13.60;99.90
7325;DHT22;3703;48.016;7.802;2023-05-10T06:27:56;13.20;99.90
7325;DHT22;3703;48.016;7.802;2023-05-10T06:30:24;13.40;99.90
7325;DHT22;3703;48.016;7.802;2023-05-10T06:32:54;13.70;98.90
7325;DHT22;3703;48.016;7.802;2023-05-10T06:35:21;13.80;99.90
7325;DHT22;3703;48.016;7.802;2023-05-10T06:37:49;13.80;97.60
7325;DHT22;3703;48.016;7.802;2023-05-10T06:40:17;13.80;96.20
7325;DHT22;3703;48.016;7.802;2023-05-10T06:42:44;13.90;98.90
7325;DHT22;3703;48.016;7.802;2023-05-10T06:45:14;13.80;96.50
7325;DHT22;3703;48.016;7.802;2023-05-10T06:47:41;13.90;96.20
7325;DHT22;3703;48.016;7.802;2023-05-10T06:50:09;13.70;98.10
7325;DHT22;3703;48.016;7.802;2023-05-10T06:52:37;13.70;99.60
7325;DHT22;3703;48.016;7.802;2023-05-10T06:55:05;13.90;99.90
7325;DHT22;3703;48.016;7.802;2023-05-10T06:57:33;14.00;99.40
7325;DHT22;3703;48.016;7.802;2023-05-10T07:00:01;14.10;94.00
7325;DHT22;3703;48.016;7.802;2023-05-10T07:02:32;14.00;93.60
7325;DHT22;3703;48.016;7.802;2023-05-10T07:04:59;14.00;91.70
7325;DHT22;3703;48.016;7.802;2023-05-10T07:07:27;14.10;92.40
7325;DHT22;3703;48.016;7.802;2023-05-10T07:09:55;14.20;90.70
7325;DHT22;3703;48.016;7.802;2023-05-10T07:12:23;14.20;95.70
7325;DHT22;3703;48.016;7.802;2023-05-10T07:14:50;14.20;90.90
7325;DHT22;3703;48.016;7.802;2023-05-10T07:17:18;14.20;88.20
7325;DHT22;3703;48.016;7.802;2023-05-10T07:19:46;14.40;90.70
7325;DHT22;3703;48.016;7.802;2023-05-10T07:22:14;14.40;81.30
7325;DHT22;3703;48.016;7.802;2023-05-10T07:24:42;14.30;75.00
7325;DHT22;3703;48.016;7.802;2023-05-10T07:27:10;14.30;87.80
7325;DHT22;3703;48.016;7.802;2023-05-10T07:29:38;14.40;85.30
7325;DHT22;3703;48.016;7.802;2023-05-10T07:32:06;14.40;74.30
7325;DHT22;3703;48.016;7.802;2023-05-10T07:34:35;14.50;76.40
7325;DHT22;3703;48.016;7.802;2023-05-10T07:37:03;14.60;80.70
7325;DHT22;3703;48.016;7.802;2023-05-10T07:39:31;14.70;68.70
7325;DHT22;3703;48.016;7.802;2023-05-10T07:41:58;14.70;60.20
7325;DHT22;3703;48.016;7.802;2023-05-10T07:44:26;16.20;66.30
7325;DHT22;3703;48.016;7.802;2023-05-10T07:46:53;14.90;66.00
7325;DHT22;3703;48.016;7.802;2023-05-10T07:49:21;14.90;59.80
7325;DHT22;3703;48.016;7.802;2023-05-10T07:51:49;15.20;58.30
7325;DHT22;3703;48.016;7.802;2023-05-10T07:54:18;15.30;54.10
7325;DHT22;3703;48.016;7.802;2023-05-10T07:56:45;15.10;50.90
7325;DHT22;3703;48.016;7.802;2023-05-10T07:59:15;15.10;58.30
7325;DHT22;3703;48.016;7.802;2023-05-10T08:01:43;15.20;34.90
7325;DHT22;3703;48.016;7.802;2023-05-10T08:04:11;15.30;39.20
7325;DHT22;3703;48.016;7.802;2023-05-10T08:06:39;15.30;31.80
7325;DHT22;3703;48.016;7.802;2023-05-10T08:09:06;15.10;22.50
7325;DHT22;3703;48.016;7.802;2023-05-10T08:11:35;15.10;25.20
7325;DHT22;3703;48.016;7.802;2023-05-10T08:14:02;15.20;31.10
7325;DHT22;3703;48.016;7.802;2023-05-10T08:16:29;15.10;29.20
7325;DHT22;3703;48.016;7.802;2023-05-10T08:18:57;15.10;23.30
7325;DHT22;3703;48.016;7.802;2023-05-10T08:21:24;14.90;7.10
7325;DHT22;3703;48.016;7.802;2023-05-10T08:23:51;14.80;10.00
7325;DHT22;3703;48.016;7.802;2023-05-10T08:26:19;14.90;15.30
7325;DHT22;3703;48.016;7.802;2023-05-10T08:28:47;14.90;13.40
7325;DHT22;3703;48.016;7.802;2023-05-10T08:31:15;15.10;18.40
7325;DHT22;3703;48.016;7.802;2023-05-10T08:33:42;15.30;5.40
7325;DHT22;3703;48.016;7.802;2023-05-10T08:36:09;15.30;1.00
7325;DHT22;3703;48.016;7.802;2023-05-10T08:38:37;15.30;1.00
7325;DHT22;3703;48.016;7.802;2023-05-10T08:41:05;15.20;1.00
7325;DHT22;3703;48.016;7.802;2023-05-10T08:43:33;15.40;1.00
7325;DHT22;3703;48.016;7.802;2023-05-10T08:46:05;15.60;1.00
7325;DHT22;3703;48.016;7.802;2023-05-10T08:48:34;15.60;1.00
7325;DHT22;3703;48.016;7.802;2023-05-10T08:51:03;16.30;1.00
7325;DHT22;3703;48.016;7.802;2023-05-10T08:53:33;15.90;1.00
7325;DHT22;3703;48.016;7.802;2023-05-10T08:56:02;16.20;1.00
7325;DHT22;3703;48.016;7.802;2023-05-10T08:58:31;16.40;1.00
7325;DHT22;3703;48.016;7.802;2023-05-10T09:00:59;16.20;1.00
7325;DHT22;3703;48.016;7.802;2023-05-10T09:03:29;16.20;1.00
7325;DHT22;3703;48.016;7.802;2023-05-10T09:05:58;16.20;1.00
7325;DHT22;3703;48.016;7.802;2023-05-10T09:08:26;16.30;1.00
7325;DHT22;3703;48.016;7.802;2023-05-10T09:10:53;16.40;1.00
7325;DHT22;3703;48.016;7.802;2023-05-10T09:13:23;16.30;1.00
7325;DHT22;3703;48.016;7.802;2023-05-10T09:15:52;16.50;1.00
7325;DHT22;3703;48.016;7.802;2023-05-10T09:18:19;16.30;1.00
7325;DHT22;3703;48.016;7.802;2023-05-10T09:20:48;16.20;1.00
7325;DHT22;3703;48.016;7.802;2023-05-10T09:23:15;16.00;1.00
7325;DHT22;3703;48.016;7.802;2023-05-10T09:25:42;16.00;1.00
7325;DHT22;3703;48.016;7.802;2023-05-10T09:28:10;16.30;1.00
7325;DHT22;3703;48.016;7.802;2023-05-10T09:30:37;16.80;1.00
7325;DHT22;3703;48.016;7.802;2023-05-10T09:33:05;17.60;1.00
7325;DHT22;3703;48.016;7.802;2023-05-10T09:35:33;18.10;1.00
7325;DHT22;3703;48.016;7.802;2023-05-10T09:38:03;18.10;1.00
7325;DHT22;3703;48.016;7.802;2023-05-10T09:40:31;18.30;99.90
7325;DHT22;3703;48.016;7.802;2023-05-10T09:43:00;17.50;1.00
7325;DHT22;3703;48.016;7.802;2023-05-10T09:45:29;17.50;99.90
7325;DHT22;3703;48.016;7.802;2023-05-10T09:47:58;17.20;99.90
7325;DHT22;3703;48.016;7.802;2023-05-10T09:50:26;17.30;99.90
7325;DHT22;3703;48.016;7.802;2023-05-10T09:52:55;17.30;99.90
7325;DHT22;3703;48.016;7.802;2023-05-10T09:55:38;17.20;1.00
7325;DHT22;3703;48.016;7.802;2023-05-10T09:58:07;17.10;99.90
7325;DHT22;3703;48.016;7.802;2023-05-10T10:00:37;17.70;99.90
7325;DHT22;3703;48.016;7.802;2023-05-10T10:03:05;17.70;99.90
7325;DHT22;3703;48.016;7.802;2023-05-10T10:05:35;17.30;99.90
7325;DHT22;3703;48.016;7.802;2023-05-10T10:08:04;17.20;99.90
7325;DHT22;3703;48.016;7.802;2023-05-10T10:10:33;17.40;99.90
7325;DHT22;3703;48.016;7.802;2023-05-10T10:13:01;17.80;99.90
7325;DHT22;3703;48.016;7.802;2023-05-10T10:15:30;17.60;99.90
7325;DHT22;3703;48.016;7.802;2023-05-10T10:18:00;17.60;99.90
7325;DHT22;3703;48.016;7.802;2023-05-10T10:20:29;17.60;99.90
7325;DHT22;3703;48.016;7.802;2023-05-10T10:22:58;17.80;99.90
7325;DHT22;3703;48.016;7.802;2023-05-10T10:25:26;17.50;99.90
7325;DHT22;3703;48.016;7.802;2023-05-10T10:28:09;17.40;99.90
7325;DHT22;3703;48.016;7.802;2023-05-10T10:30:43;17.40;99.90
7325;DHT22;3703;48.016;7.802;2023-05-10T10:33:33;17.40;99.90
7325;DHT22;3703;48.016;7.802;2023-05-10T10:36:07;17.60;99.90
7325;DHT22;3703;48.016;7.802;2023-05-10T10:41:31;17.70;99.90
7325;DHT22;3703;48.016;7.802;2023-05-10T10:44:25;17.80;99.90
7325;DHT22;3703;48.016;7.802;2023-05-10T10:47:21;17.60;99.90
7325;DHT22;3703;48.016;7.802;2023-05-10T10:49:51;18.70;99.90
7325;DHT22;3703;48.016;7.802;2023-05-10T10:52:25;17.50;99.90
7325;DHT22;3703;48.016;7.802;2023-05-10T10:54:59;17.00;99.90
7325;DHT22;3703;48.016;7.802;2023-05-10T10:57:28;17.10;99.90
7325;DHT22;3703;48.016;7.802;2023-05-10T11:00:25;17.10;99.90
7325;DHT22;3703;48.016;7.802;2023-05-10T11:02:57;17.10;99.90
7325;DHT22;3703;48.016;7.802;2023-05-10T11:05:37;17.60;99.90
7325;DHT22;3703;48.016;7.802;2023-05-10T11:08:26;17.60;99.90
7325;DHT22;3703;48.016;7.802;2023-05-10T11:11:03;17.90;99.90
7325;DHT22;3703;48.016;7.802;2023-05-10T11:13:34;17.90;99.90
7325;DHT22;3703;48.016;7.802;2023-05-10T11:16:19;17.90;99.90
7325;DHT22;3703;48.016;7.802;2023-05-10T11:18:59;17.60;99.90
7325;DHT22;3703;48.016;7.802;2023-05-10T11:21:28;17.40;99.90
7325;DHT22;3703;48.016;7.802;2023-05-10T11:23:57;17.10;99.90
7325;DHT22;3703;48.016;7.802;2023-05-10T11:26:30;17.20;99.90
7325;DHT22;3703;48.016;7.802;2023-05-10T11:29:00;17.10;99.90
7325;DHT22;3703;48.016;7.802;2023-05-10T11:31:30;17.10;99.90
7325;DHT22;3703;48.016;7.802;2023-05-10T11:33:58;16.90;99.90
7325;DHT22;3703;48.016;7.802;2023-05-10T11:36:28;16.80;99.90
7325;DHT22;3703;48.016;7.802;2023-05-10T11:38:56;16.70;99.90
7325;DHT22;3703;48.016;7.802;2023-05-10T11:41:24;16.90;99.90
7325;DHT22;3703;48.016;7.802;2023-05-10T11:43:55;16.80;99.90
7325;DHT22;3703;48.016;7.802;2023-05-10T11:46:24;16.90;99.90
7325;DHT22;3703;48.016;7.802;2023-05-10T11:48:57;16.70;99.90
7325;DHT22;3703;48.016;7.802;2023-05-10T11:51:26;16.60;99.90
7325;DHT22;3703;48.016;7.802;2023-05-10T11:53:54;16.60;99.90
7325;DHT22;3703;48.016;7.802;2023-05-10T11:56:22;17.00;99.90
7325;DHT22;3703;48.016;7.802;2023-05-10T11:58:56;17.10;99.90
7325;DHT22;3703;48.016;7.802;2023-05-10T12:01:24;17.90;99.90
7325;DHT22;3703;48.016;7.802;2023-05-10T12:03:55;17.20;99.90
7325;DHT22;3703;48.016;7.802;2023-05-10T12:06:26;17.10;99.90
7325;DHT22;3703;48.016;7.802;2023-05-10T12:08:54;17.00;99.90
7325;DHT22;3703;48.016;7.802;2023-05-10T12:11:25;17.00;99.90
7325;DHT22;3703;48.016;7.802;2023-05-10T12:13:53;16.90;99.90
7325;DHT22;3703;48.016;7.802;2023-05-10T12:16:22;16.90;99.90
7325;DHT22;3703;48.016;7.802;2023-05-10T12:18:50;16.60;99.90
7325;DHT22;3703;48.016;7.802;2023-05-10T12:21:20;16.70;99.90
7325;DHT22;3703;48.016;7.802;2023-05-10T12:23:49;16.60;99.90
7325;DHT22;3703;48.016;7.802;2023-05-10T12:26:17;16.60;99.90
7325;DHT22;3703;48.016;7.802;2023-05-10T12:28:44;16.40;99.90
7325;DHT22;3703;48.016;7.802;2023-05-10T12:31:11;16.30;99.90
7325;DHT22;3703;48.016;7.802;2023-05-10T12:33:40;16.50;99.90
7325;DHT22;3703;48.016;7.802;2023-05-10T12:36:09;16.70;97.10
7325;DHT22;3703;48.016;7.802;2023-05-10T12:38:39;16.40;1.00
7325;DHT22;3703;48.016;7.802;2023-05-10T12:41:09;16.00;1.00
7325;DHT22;3703;48.016;7.802;2023-05-10T12:43:37;15.70;1.00
7325;DHT22;3703;48.016;7.802;2023-05-10T12:46:06;16.30;1.00
7325;DHT22;3703;48.016;7.802;2023-05-10T12:48:34;15.10;1.00
7325;DHT22;3703;48.016;7.802;2023-05-10T12:51:02;15.10;1.00
7325;DHT22;3703;48.016;7.802;2023-05-10T12:53:30;15.20;1.00
7325;DHT22;3703;48.016;7.802;2023-05-10T12:55:59;15.40;1.00
7325;DHT22;3703;48.016;7.802;2023-05-10T12:58:26;15.70;1.00
7325;DHT22;3703;48.016;7.802;2023-05-10T13:00:54;15.50;1.00
7325;DHT22;3703;48.016;7.802;2023-05-10T13:03:22;15.60;1.00
7325;DHT22;3703;48.016;7.802;2023-05-10T13:05:49;15.70;1.00
7325;DHT22;3703;48.016;7.802;2023-05-10T13:08:16;15.70;1.00
7325;DHT22;3703;48.016;7.802;2023-05-10T13:10:43;15.60;1.00
7325;DHT22;3703;48.016;7.802;2023-05-10T13:13:12;15.70;1.00
7325;DHT22;3703;48.016;7.802;2023-05-10T13:15:40;15.60;1.00
7325;DHT22;3703;48.016;7.802;2023-05-10T13:18:07;15.70;1.00
7325;DHT22;3703;48.016;7.802;2023-05-10T13:20:35;15.60;1.00
7325;DHT22;3703;48.016;7.802;2023-05-10T13:23:02;15.50;1.00
7325;DHT22;3703;48.016;7.802;2023-05-10T13:25:29;15.30;1.00
7325;DHT22;3703;48.016;7.802;2023-05-10T13:27:56;15.20;1.00
7325;DHT22;3703;48.016;7.802;2023-05-10T13:30:25;15.20;1.00
7325;DHT22;3703;48.016;7.802;2023-05-10T13:32:52;15.20;1.00
7325;DHT22;3703;48.016;7.802;2023-05-10T13:35:19;15.40;1.00
7325;DHT22;3703;48.016;7.802;2023-05-10T13:37:47;16.00;1.00
7325;DHT22;3703;48.016;7.802;2023-05-10T13:40:14;16.50;1.00
7325;DHT22;3703;48.016;7.802;2023-05-10T13:42:41;16.40;1.00
7325;DHT22;3703;48.016;7.802;2023-05-10T13:45:09;16.60;1.00
7325;DHT22;3703;48.016;7.802;2023-05-10T13:47:39;16.10;1.00
7325;DHT22;3703;48.016;7.802;2023-05-10T13:50:07;16.90;1.00
7325;DHT22;3703;48.016;7.802;2023-05-10T13:52:34;16.90;99.90
7325;DHT22;3703;48.016;7.802;2023-05-10T13:55:01;16.90;1.00
7325;DHT22;3703;48.016;7.802;2023-05-10T13:57:29;16.70;99.90
7325;DHT22;3703;48.016;7.802;2023-05-10T13:59:56;16.60;99.90
7325;DHT22;3703;48.016;7.802;2023-05-10T14:02:23;16.70;99.90
7325;DHT22;3703;48.016;7.802;2023-05-10T14:04:54;16.70;99.90
7325;DHT22;3703;48.016;7.802;2023-05-10T14:07:21;16.90;99.90
7325;DHT22;3703;48.016;7.802;2023-05-10T14:09:48;16.70;99.90
7325;DHT22;3703;48.016;7.802;2023-05-10T14:12:15;16.80;1.00
7325;DHT22;3703;48.016;7.802;2023-05-10T14:14:42;17.00;1.00
7325;DHT22;3703;48.016;7.802;2023-05-10T14:17:09;17.10;50.70
7325;DHT22;3703;48.016;7.802;2023-05-10T14:19:36;16.60;1.00
7325;DHT22;3703;48.016;7.802;2023-05-10T14:22:05;16.70;1.00
7325;DHT22;3703;48.016;7.802;2023-05-10T14:24:32;16.50;99.90
7325;DHT22;3703;48.016;7.802;2023-05-10T14:27:00;16.50;1.00
7325;DHT22;3703;48.016;7.802;2023-05-10T14:29:27;16.40;1.00
7325;DHT22;3703;48.016;7.802;2023-05-10T14:31:54;17.60;99.90
7325;DHT22;3703;48.016;7.802;2023-05-10T14:34:21;16.20;1.00
7325;DHT22;3703;48.016;7.802;2023-05-10T14:36:48;16.30;99.90
7325;DHT22;3703;48.016;7.802;2023-05-10T14:39:17;16.30;99.90
7325;DHT22;3703;48.016;7.802;2023-05-10T14:41:44;16.40;1.00
7325;DHT22;3703;48.016;7.802;2023-05-10T14:44:12;16.40;99.90
7325;DHT22;3703;48.016;7.802;2023-05-10T14:46:40;16.50;99.90
7325;DHT22;3703;48.016;7.802;2023-05-10T14:49:08;16.80;1.00
7325;DHT22;3703;48.016;7.802;2023-05-10T14:51:35;16.50;99.90
7325;DHT22;3703;48.016;7.802;2023-05-10T14:54:03;16.50;99.90
7325;DHT22;3703;48.016;7.802;2023-05-10T14:56:31;16.60;99.90
7325;DHT22;3703;48.016;7.802;2023-05-10T14:58:59;16.70;1.00
7325;DHT22;3703;48.016;7.802;2023-05-10T15:01:26;16.90;99.90
7325;DHT22;3703;48.016;7.802;2023-05-10T15:03:53;17.00;1.00
7325;DHT22;3703;48.016;7.802;2023-05-10T15:06:23;17.00;1.00
7325;DHT22;3703;48.016;7.802;2023-05-10T15:08:51;16.90;99.90
7325;DHT22;3703;48.016;7.802;2023-05-10T15:11:18;17.00;1.00
7325;DHT22;3703;48.016;7.802;2023-05-10T15:13:47;17.00;1.00
7325;DHT22;3703;48.016;7.802;2023-05-10T15:16:14;16.80;1.00
7325;DHT22;3703;48.016;7.802;2023-05-10T15:18:41;16.80;1.00
7325;DHT22;3703;48.016;7.802;2023-05-10T15:21:09;16.90;1.00
7325;DHT22;3703;48.016;7.802;2023-05-10T15:23:36;16.80;99.90
7325;DHT22;3703;48.016;7.802;2023-05-10T15:26:03;16.80;99.90
7325;DHT22;3703;48.016;7.802;2023-05-10T15:28:30;16.80;1.00
7325;DHT22;3703;48.016;7.802;2023-05-10T15:30:59;17.00;99.90
7325;DHT22;3703;48.016;7.802;2023-05-10T15:33:26;16.90;1.00
7325;DHT22;3703;48.016;7.802;2023-05-10T15:35:54;17.40;99.90
7325;DHT22;3703;48.016;7.802;2023-05-10T15:38:21;17.80;1.00
7325;DHT22;3703;48.016;7.802;2023-05-10T15:40:48;18.10;99.90
7325;DHT22;3703;48.016;7.802;2023-05-10T15:43:15;18.10;99.90
7325;DHT22;3703;48.016;7.802;2023-05-10T15:45:42;18.10;99.90
7325;DHT22;3703;48.016;7.802;2023-05-10T15:48:11;18.10;99.90
7325;DHT22;3703;48.016;7.802;2023-05-10T15:50:38;17.80;99.90
7325;DHT22;3703;48.016;7.802;2023-05-10T15:53:06;17.90;99.90
7325;DHT22;3703;48.016;7.802;2023-05-10T15:55:33;17.80;99.90
7325;DHT22;3703;48.016;7.802;2023-05-10T15:58:00;17.70;99.90
7325;DHT22;3703;48.016;7.802;2023-05-10T16:00:28;17.80;99.90
7325;DHT22;3703;48.016;7.802;2023-05-10T16:02:55;17.90;99.90
7325;DHT22;3703;48.016;7.802;2023-05-10T16:05:23;17.60;99.90
7325;DHT22;3703;48.016;7.802;2023-05-10T16:07:52;17.40;99.90
7325;DHT22;3703;48.016;7.802;2023-05-10T16:10:19;17.40;99.90
7325;DHT22;3703;48.016;7.802;2023-05-10T16:12:46;17.30;99.90
7325;DHT22;3703;48.016;7.802;2023-05-10T16:15:13;17.10;99.90
7325;DHT22;3703;48.016;7.802;2023-05-10T16:17:41;16.90;1.00
7325;DHT22;3703;48.016;7.802;2023-05-10T16:20:08;16.80;1.00
7325;DHT22;3703;48.016;7.802;2023-05-10T16:22:37;16.50;99.90
7325;DHT22;3703;48.016;7.802;2023-05-10T16:25:06;16.40;99.90